Hatsu Elite — VSJG7 — position and weather

sailwx.info

Track history (hours):
 
Tides and Currents Weather Stations Pressure Air Temp Water Temp Dewpoint Dewpoint Depression Visibility Wind Speed Wind Dir Waves Ship Positions

Hatsu Elite

Last reported at 2017-Sep-17 20:45 UTC. Time now 2017-Sep-19 16:51 UTC.
Position N 38°10' W 124°46'.

Type: Ship (hazmat cat D). MMSI: 235554000.

Date/timePositionNaut miles runAvg speedWind from/ knotsBaromVisibWave heightAir tempDewpointWater temp
2017-Sep-17 20:45N 38°10' W 124°46'613.2
2017-Sep-17 20:19N 38°10' W 124°39'413.3
2017-Sep-17 20:00N 38°10' W 124°33'713.3
2017-Sep-17 19:30N 38°10' W 124°25'713.2
2017-Sep-17 19:00N 38°10' W 124°17'713.0
2017-Sep-17 18:30N 38°10' W 124°08'713.2
2017-Sep-17 18:00N 38°10' W 123°60'713.2
2017-Sep-17 17:30N 38°10' W 123°51'713.1
2017-Sep-17 17:00N 38°10' W 123°43'612.9
2017-Sep-17 16:30N 38°10' W 123°35'612.4
2017-Sep-17 16:00N 38°10' W 123°27'611.3
2017-Sep-17 15:30N 38°09' W 123°20'5 9.7
2017-Sep-17 15:00N 38°05' W 123°16'5 9.5
2017-Sep-17 14:30N 38°02' W 123°12'5 9.2
2017-Sep-17 14:00N 37°58' W 123°08'5 9.5
2017-Sep-17 13:30N 37°56' W 123°03'5 9.5
2017-Sep-17 13:00N 37°54' W 122°57'5 9.4
2017-Sep-17 12:30N 37°51' W 122°52'5 9.5
2017-Sep-17 12:00N 37°49' W 122°47'5 9.9
2017-Sep-17 11:30N 37°46' W 122°42'611.0
2017-Sep-17 11:00N 37°47' W 122°35'715.0
2017-Sep-17 10:30N 37°51' W 122°27'5 9.9
2017-Sep-17 09:59N 37°49' W 122°20'0 0.1
2017-Sep-17 09:28N 37°49' W 122°20'0 0.0
2017-Sep-17 08:59N 37°49' W 122°20'0 0.0
2017-Sep-17 08:29N 37°49' W 122°20'0 0.0
2017-Sep-17 07:59N 37°49' W 122°20'0 0.0
2017-Sep-17 07:29N 37°49' W 122°20'0 0.0
2017-Sep-17 06:59N 37°49' W 122°20'0 0.0
2017-Sep-17 06:29N 37°49' W 122°20'0 0.0
2017-Sep-17 05:59N 37°49' W 122°20'0 0.0
2017-Sep-17 05:29N 37°49' W 122°20'0 0.0
2017-Sep-17 04:59N 37°49' W 122°20'0 0.0
2017-Sep-17 04:29N 37°49' W 122°20'0 0.0
2017-Sep-17 03:59N 37°49' W 122°20'0 0.0
2017-Sep-17 03:28N 37°49' W 122°20'0 0.0
2017-Sep-17 02:58N 37°49' W 122°20'0 0.0
2017-Sep-17 02:28N 37°49' W 122°20'0 0.0
2017-Sep-17 01:58N 37°49' W 122°20'0 0.0
2017-Sep-17 01:29N 37°49' W 122°20'0 0.0
2017-Sep-17 00:58N 37°49' W 122°20'0 0.0
2017-Sep-17 00:28N 37°49' W 122°20'0 0.0
2017-Sep-16 23:59N 37°49' W 122°20'0 0.0
2017-Sep-16 23:29N 37°49' W 122°20'0 0.0
2017-Sep-16 23:00N 37°49' W 122°20'0 0.0
2017-Sep-16 22:31N 37°49' W 122°20'0 0.0
2017-Sep-16 22:01N 37°49' W 122°20'0 0.0
2017-Sep-16 21:31N 37°49' W 122°20'0 0.0
2017-Sep-16 21:01N 37°49' W 122°20'0 0.0
2017-Sep-16 20:31N 37°49' W 122°20'0 0.0
2017-Sep-16 20:01N 37°49' W 122°20'0 0.0
2017-Sep-16 19:30N 37°49' W 122°20'0 0.0
2017-Sep-16 19:01N 37°49' W 122°20'0 0.0
2017-Sep-16 18:30N 37°49' W 122°20'0 0.0
2017-Sep-16 18:00N 37°49' W 122°20'0 0.0
2017-Sep-16 17:31N 37°49' W 122°20'0 0.0
2017-Sep-16 17:01N 37°49' W 122°20'0 0.0
2017-Sep-16 16:31N 37°49' W 122°20'0 0.0
2017-Sep-16 16:01N 37°49' W 122°20'0 0.0
2017-Sep-16 15:31N 37°49' W 122°20'0 0.0
2017-Sep-16 15:01N 37°49' W 122°20'0 0.0
2017-Sep-16 14:30N 37°49' W 122°20'0 0.0
2017-Sep-16 14:00N 37°49' W 122°20'0 0.0
2017-Sep-16 13:31N 37°49' W 122°20'0 0.8
2017-Sep-16 13:01N 37°49' W 122°20'0 1.0
2017-Sep-16 12:31N 37°49' W 122°20'5 9.7
2017-Sep-16 12:01N 37°49' W 122°27'714.5
2017-Sep-16 11:30N 37°47' W 122°35'510.5
2017-Sep-16 11:00N 37°44' W 122°41'4 8.3
2017-Sep-16 10:30N 37°40' W 122°40'4 8.7
2017-Sep-16 10:01N 37°36' W 122°39'4 8.4
2017-Sep-16 09:30N 37°31' W 122°39'5 9.7
2017-Sep-16 09:00N 37°27' W 122°39'5 9.7
2017-Sep-16 08:30N 37°22' W 122°39'5 9.7
2017-Sep-16 08:00N 37°17' W 122°39'5 9.7
2017-Sep-16 07:30N 37°12' W 122°39'510.5
2017-Sep-16 07:00N 37°07' W 122°39'612.6
2017-Sep-16 06:30N 37°01' W 122°37'713.2
2017-Sep-16 06:00N 36°55' W 122°34'713.9
2017-Sep-16 05:30N 36°48' W 122°31'713.9
2017-Sep-16 05:00N 36°42' W 122°28'713.8
2017-Sep-16 04:29N 36°35' W 122°24'713.8
2017-Sep-16 03:57N 36°28' W 122°21'1713.8
2017-Sep-16 02:43N 36°12' W 122°14'4313.9
2017-Sep-15 23:36N 35°33' W 121°50'114.2
2017-Sep-15 23:30N 35°32' W 121°49'714.3
2017-Sep-15 23:00N 35°26' W 121°45'714.4
2017-Sep-15 22:31N 35°19' W 121°41'713.9
2017-Sep-15 22:00N 35°13' W 121°37'713.9
2017-Sep-15 21:30N 35°07' W 121°33'714.1
2017-Sep-15 21:00N 35°01' W 121°29'714.3
2017-Sep-15 20:30N 34°54' W 121°25'714.4
2017-Sep-15 20:00N 34°48' W 121°21'714.1
2017-Sep-15 19:31N 34°42' W 121°17'713.6
2017-Sep-15 19:00N 34°36' W 121°13'713.4
2017-Sep-15 18:30N 34°30' W 121°09'612.5
2017-Sep-15 18:01N 34°28' W 121°02'612.6
2017-Sep-15 17:31N 34°27' W 120°54'510.4
2017-Sep-15 17:00N 34°25' W 120°48'5 9.4
2017-Sep-15 16:31N 34°24' W 120°43'5 9.5
2017-Sep-15 16:01N 34°23' W 120°37'5 9.5
2017-Sep-15 15:30N 34°21' W 120°31'5 9.6
2017-Sep-15 15:00N 34°20' W 120°26'5 9.6
2017-Sep-15 14:30N 34°19' W 120°20'5 9.5
2017-Sep-15 14:00N 34°18' W 120°15'5 9.6
2017-Sep-15 13:30N 34°16' W 120°09'5 9.6
2017-Sep-15 13:00N 34°15' W 120°04'5 9.5
2017-Sep-15 12:26N 34°14' W 119°57'4 9.5
2017-Sep-15 11:58N 34°13' W 119°52'5 9.7
2017-Sep-15 11:30N 34°12' W 119°47'5 9.5
2017-Sep-15 10:59N 34°10' W 119°41'5 9.7
2017-Sep-15 10:30N 34°09' W 119°36'5 9.5
2017-Sep-15 10:00N 34°08' W 119°30'5 9.6
2017-Sep-15 09:28N 34°06' W 119°24'5 9.4
2017-Sep-15 08:59N 34°05' W 119°19'5 9.7
2017-Sep-15 08:31N 34°04' W 119°14'5 9.9
2017-Sep-15 08:01N 34°01' W 119°08'5 9.8
2017-Sep-15 07:30N 33°59' W 119°03'5 9.6
2017-Sep-15 07:00N 33°56' W 118°58'5 9.6
2017-Sep-15 06:31N 33°54' W 118°53'5 9.4
2017-Sep-15 06:01N 33°52' W 118°48'5 9.7
2017-Sep-15 05:30N 33°49' W 118°43'5 9.6
2017-Sep-15 05:00N 33°47' W 118°38'5 9.4
2017-Sep-15 04:30N 33°44' W 118°33'5 9.4
2017-Sep-15 04:00N 33°42' W 118°28'5 9.4
2017-Sep-15 03:31N 33°40' W 118°24'5 8.8
2017-Sep-15 02:59N 33°38' W 118°18'4 8.1
2017-Sep-15 02:30N 33°41' W 118°15'3 6.0
2017-Sep-15 02:00N 33°44' W 118°17'1 1.8
2017-Sep-15 01:30N 33°45' W 118°16'0 0.0
2017-Sep-15 00:57N 33°45' W 118°16'0 0.0
2017-Sep-15 00:27N 33°45' W 118°16'0 0.0
2017-Sep-14 23:57N 33°45' W 118°16'0 0.0
2017-Sep-14 23:30N 33°45' W 118°16'0 0.0
2017-Sep-14 22:51N 33°45' W 118°16'0 0.0
2017-Sep-14 22:27N 33°45' W 118°16'0 0.0
2017-Sep-14 22:00N 33°45' W 118°16'0 0.0
2017-Sep-14 21:30N 33°45' W 118°16'0 0.0
2017-Sep-14 21:00N 33°45' W 118°16'0 0.0
2017-Sep-14 20:27N 33°45' W 118°16'0 0.0
2017-Sep-14 20:00N 33°45' W 118°16'0 0.0
2017-Sep-14 19:30N 33°45' W 118°16'0 0.0
2017-Sep-14 19:00N 33°45' W 118°16'0 0.0
2017-Sep-14 18:30N 33°45' W 118°16'0 0.0
2017-Sep-14 18:00N 33°45' W 118°16'0 0.0
2017-Sep-14 17:24N 33°45' W 118°16'0 0.0
2017-Sep-14 16:48N 33°45' W 118°16'0 0.0
2017-Sep-14 16:27N 33°45' W 118°16'0 0.0
2017-Sep-14 15:54N 33°45' W 118°16'0 0.0
2017-Sep-14 15:30N 33°45' W 118°16'0 0.0
2017-Sep-14 14:54N 33°45' W 118°16'0 0.0
2017-Sep-14 14:24N 33°45' W 118°16'0 0.0
2017-Sep-14 13:51N 33°45' W 118°16'0 0.0
2017-Sep-14 13:24N 33°45' W 118°16'0 0.0
2017-Sep-14 12:24N 33°45' W 118°16'0 0.0
2017-Sep-14 08:45N 33°45' W 118°16'0 0.0
2017-Sep-14 08:30N 33°45' W 118°16'0 0.0
2017-Sep-14 07:06N 33°45' W 118°16'0 0.0
2017-Sep-14 06:54N 33°45' W 118°16'0 0.0
2017-Sep-14 06:00N 33°45' W 118°16'0 0.0
2017-Sep-14 05:27N 33°45' W 118°16'0 0.0
2017-Sep-14 04:57N 33°45' W 118°16'0 0.0
2017-Sep-14 04:24N 33°45' W 118°16'0 0.0
2017-Sep-14 03:48N 33°45' W 118°16'0 0.0
2017-Sep-14 03:24N 33°45' W 118°16'0 0.0
2017-Sep-14 02:57N 33°45' W 118°16'0 0.0
2017-Sep-14 02:30N 33°45' W 118°16'0 0.0
2017-Sep-14 02:00N 33°45' W 118°16'0 0.0
2017-Sep-14 01:30N 33°45' W 118°16'0 0.0
2017-Sep-14 01:00N 33°45' W 118°16'0 0.0
2017-Sep-14 00:27N 33°45' W 118°16'0 0.0
2017-Sep-13 23:57N 33°45' W 118°16'0 0.0
2017-Sep-13 23:30N 33°45' W 118°16'0 0.0
2017-Sep-13 23:00N 33°45' W 118°16'0 0.0
2017-Sep-13 22:30N 33°45' W 118°16'0 0.0
2017-Sep-13 22:00N 33°45' W 118°16'0 0.0
2017-Sep-13 21:30N 33°45' W 118°16'0 0.0
2017-Sep-13 21:00N 33°45' W 118°16'0 0.0
2017-Sep-13 20:30N 33°45' W 118°16'0 0.0
2017-Sep-13 20:00N 33°45' W 118°16'0 0.0
2017-Sep-13 19:30N 33°45' W 118°16'0 0.0
2017-Sep-13 18:54N 33°45' W 118°16'0 0.0
2017-Sep-13 18:30N 33°45' W 118°16'0 0.0
2017-Sep-13 18:00N 33°45' W 118°16'0 0.0
2017-Sep-13 17:30N 33°45' W 118°16'0 0.0
2017-Sep-13 17:00N 33°45' W 118°16'0 0.0
2017-Sep-13 16:30N 33°45' W 118°16'0 0.0
2017-Sep-13 15:57N 33°45' W 118°16'0 0.0
2017-Sep-13 15:30N 33°45' W 118°16'0 0.0
2017-Sep-13 15:00N 33°45' W 118°16'0 0.0
2017-Sep-13 14:30N 33°45' W 118°16'0 0.0
2017-Sep-13 14:00N 33°45' W 118°16'0 0.0
2017-Sep-13 13:30N 33°45' W 118°16'0 0.0
2017-Sep-13 13:00N 33°45' W 118°16'0 0.0
2017-Sep-13 12:27N 33°45' W 118°16'0 0.0
2017-Sep-13 12:00N 33°45' W 118°16'0 0.0
2017-Sep-13 11:30N 33°45' W 118°16'0 0.0
2017-Sep-13 11:00N 33°45' W 118°16'0 0.0
2017-Sep-13 10:30N 33°45' W 118°16'0 0.0
2017-Sep-13 10:00N 33°45' W 118°16'0 0.0
2017-Sep-13 09:30N 33°45' W 118°16'0 0.0
2017-Sep-13 09:00N 33°45' W 118°16'0 0.0
2017-Sep-13 08:30N 33°45' W 118°16'0 0.0
2017-Sep-13 08:00N 33°45' W 118°16'0 0.0
2017-Sep-13 07:30N 33°45' W 118°16'0 0.0
2017-Sep-13 07:00N 33°45' W 118°16'0 0.0
2017-Sep-13 06:30N 33°45' W 118°16'0 0.0
2017-Sep-13 06:00N 33°45' W 118°16'0 0.0
2017-Sep-13 05:30N 33°45' W 118°16'0 0.0
2017-Sep-13 05:00N 33°45' W 118°16'0 0.0
2017-Sep-13 04:30N 33°45' W 118°16'0 0.0
2017-Sep-13 04:00N 33°45' W 118°16'0 0.0
2017-Sep-13 03:30N 33°45' W 118°16'0 0.0
2017-Sep-13 03:00N 33°45' W 118°16'0 0.0
2017-Sep-13 02:30N 33°45' W 118°16'0 0.0
2017-Sep-13 02:00N 33°45' W 118°16'0 0.0
2017-Sep-13 01:30N 33°45' W 118°16'0 0.0
2017-Sep-13 01:00N 33°45' W 118°16'0 0.0
2017-Sep-13 00:30N 33°45' W 118°16'0 0.0
2017-Sep-13 00:00N 33°45' W 118°16'0 0.0
2017-Sep-12 23:30N 33°45' W 118°16'0 0.0
2017-Sep-12 23:00N 33°45' W 118°16'0 0.0
2017-Sep-12 22:30N 33°45' W 118°16'0 0.0
2017-Sep-12 22:00N 33°45' W 118°16'0 0.0
2017-Sep-12 21:30N 33°45' W 118°16'0 0.0
2017-Sep-12 21:00N 33°45' W 118°16'0 0.0
2017-Sep-12 20:30N 33°45' W 118°16'0 0.0
2017-Sep-12 20:00N 33°45' W 118°16'0 0.0
2017-Sep-12 19:30N 33°45' W 118°16'0 0.0
2017-Sep-12 19:00N 33°45' W 118°16'0 0.0
2017-Sep-12 18:30N 33°45' W 118°16'0 0.0
2017-Sep-12 18:00N 33°45' W 118°16'0 0.0
2017-Sep-12 17:30N 33°45' W 118°16'0 0.0
2017-Sep-12 17:00N 33°45' W 118°16'0 0.0
2017-Sep-12 16:30N 33°45' W 118°16'0 0.0
2017-Sep-12 16:00N 33°45' W 118°16'0 0.0
2017-Sep-12 15:30N 33°45' W 118°16'0 0.0
2017-Sep-12 15:00N 33°45' W 118°16'0 0.0
2017-Sep-12 14:31N 33°45' W 118°16'0 0.0
2017-Sep-12 14:00N 33°45' W 118°16'0 0.1
2017-Sep-12 13:30N 33°45' W 118°16'0 0.9
2017-Sep-12 13:00N 33°44' W 118°17'1 1.9
2017-Sep-12 12:30N 33°44' W 118°16'1 1.1
2017-Sep-12 12:00N 33°43' W 118°16'3 6.8
2017-Sep-12 11:30N 33°40' W 118°13'4 7.5
2017-Sep-12 11:00N 33°37' W 118°15'4 7.5
2017-Sep-12 10:30N 33°36' W 118°19'5 9.4
2017-Sep-12 10:00N 33°36' W 118°25'5 9.7
2017-Sep-12 09:30N 33°37' W 118°31'5 9.9
2017-Sep-12 09:00N 33°37' W 118°37'5 9.8
2017-Sep-12 08:30N 33°37' W 118°43'5 9.8
2017-Sep-12 08:00N 33°38' W 118°48'5 9.8
2017-Sep-12 07:30N 33°38' W 118°54'5 9.6
2017-Sep-12 07:00N 33°38' W 119°00'5 9.1
2017-Sep-12 06:30N 33°38' W 119°06'2 4.0
2017-Sep-12 06:00N 33°38' W 119°08'510.6
2017-Sep-12 05:29N 33°39' W 119°15'917.2
2017-Sep-12 04:59N 33°39' W 119°25'817.2
2017-Sep-12 04:30N 33°39' W 119°35'917.5
2017-Sep-12 04:00N 33°38' W 119°45'917.4
2017-Sep-12 03:30N 33°38' W 119°56'917.4
2017-Sep-12 03:01N 33°38' W 120°06'917.3
2017-Sep-12 02:31N 33°38' W 120°17'917.2
2017-Sep-12 02:00N 33°38' W 120°27'917.3
2017-Sep-12 01:30N 33°38' W 120°37'917.2
2017-Sep-12 01:00N 33°38' W 120°48'917.7
2017-Sep-12 00:30N 33°38' W 120°59'917.3
2017-Sep-11 23:59N 33°38' W 121°09'817.1
2017-Sep-11 23:30N 33°38' W 121°19'816.9
2017-Sep-11 23:00N 33°38' W 121°29'917.0
2017-Sep-11 22:29N 33°38' W 121°40'817.0
2017-Sep-11 21:59N 33°38' W 121°50'817.3
2017-Sep-11 21:30N 33°38' W 122°00'917.2
2017-Sep-11 21:00N 33°38' W 122°10'917.4
2017-Sep-11 20:30N 33°38' W 122°21'917.6
2017-Sep-11 19:58N 33°38' W 122°32'19613.6
2017-Sep-11 05:31N 34°20' W 126°23'020.7
2017-Sep-11 05:30N 34°20' W 126°24'1120.7
2017-Sep-11 04:59N 34°24' W 126°36'1120.6
2017-Sep-11 04:26N 34°28' W 126°48'1020.5
2017-Sep-11 03:57N 34°32' W 126°60'920.7
2017-Sep-11 03:31N 34°35' W 127°10'1320.8
2017-Sep-11 02:53N 34°40' W 127°24'820.6
2017-Sep-11 02:30N 34°43' W 127°33'1320.7
2017-Sep-11 01:52N 34°48' W 127°48'721.0
2017-Sep-11 01:30N 34°51' W 127°57'1021.0
2017-Sep-11 01:01N 34°55' W 128°08'  
Track history (hours):
 
Tides and Currents Weather Stations Pressure Air Temp Water Temp Dewpoint Dewpoint Depression Visibility Wind Speed Wind Dir Waves Ship Positions

Hatsu Elite

Last reported at 2017-Sep-17 20:45 UTC. Time now 2017-Sep-19 16:51 UTC.
Position N 38°10' W 124°46'.

Type: Ship (hazmat cat D). MMSI: 235554000.

Date/timePositionNaut miles runAvg speedWind from/ knotsBaromVisibWave heightAir tempDewpointWater temp
2017-Sep-17 20:45N 38°10' W 124°46'613.2
2017-Sep-17 20:19N 38°10' W 124°39'413.3
2017-Sep-17 20:00N 38°10' W 124°33'713.3
2017-Sep-17 19:30N 38°10' W 124°25'713.2
2017-Sep-17 19:00N 38°10' W 124°17'713.0
2017-Sep-17 18:30N 38°10' W 124°08'713.2
2017-Sep-17 18:00N 38°10' W 123°60'713.2
2017-Sep-17 17:30N 38°10' W 123°51'713.1
2017-Sep-17 17:00N 38°10' W 123°43'612.9
2017-Sep-17 16:30N 38°10' W 123°35'612.4
2017-Sep-17 16:00N 38°10' W 123°27'611.3
2017-Sep-17 15:30N 38°09' W 123°20'5 9.7
2017-Sep-17 15:00N 38°05' W 123°16'5 9.5
2017-Sep-17 14:30N 38°02' W 123°12'5 9.2
2017-Sep-17 14:00N 37°58' W 123°08'5 9.5
2017-Sep-17 13:30N 37°56' W 123°03'5 9.5
2017-Sep-17 13:00N 37°54' W 122°57'5 9.4
2017-Sep-17 12:30N 37°51' W 122°52'5 9.5
2017-Sep-17 12:00N 37°49' W 122°47'5 9.9
2017-Sep-17 11:30N 37°46' W 122°42'611.0
2017-Sep-17 11:00N 37°47' W 122°35'715.0
2017-Sep-17 10:30N 37°51' W 122°27'5 9.9
2017-Sep-17 09:59N 37°49' W 122°20'0 0.1
2017-Sep-17 09:28N 37°49' W 122°20'0 0.0
2017-Sep-17 08:59N 37°49' W 122°20'0 0.0
2017-Sep-17 08:29N 37°49' W 122°20'0 0.0
2017-Sep-17 07:59N 37°49' W 122°20'0 0.0
2017-Sep-17 07:29N 37°49' W 122°20'0 0.0
2017-Sep-17 06:59N 37°49' W 122°20'0 0.0
2017-Sep-17 06:29N 37°49' W 122°20'0 0.0
2017-Sep-17 05:59N 37°49' W 122°20'0 0.0
2017-Sep-17 05:29N 37°49' W 122°20'0 0.0
2017-Sep-17 04:59N 37°49' W 122°20'0 0.0
2017-Sep-17 04:29N 37°49' W 122°20'0 0.0
2017-Sep-17 03:59N 37°49' W 122°20'0 0.0
2017-Sep-17 03:28N 37°49' W 122°20'0 0.0
2017-Sep-17 02:58N 37°49' W 122°20'0 0.0
2017-Sep-17 02:28N 37°49' W 122°20'0 0.0
2017-Sep-17 01:58N 37°49' W 122°20'0 0.0
2017-Sep-17 01:29N 37°49' W 122°20'0 0.0
2017-Sep-17 00:58N 37°49' W 122°20'0 0.0
2017-Sep-17 00:28N 37°49' W 122°20'0 0.0
2017-Sep-16 23:59N 37°49' W 122°20'0 0.0
2017-Sep-16 23:29N 37°49' W 122°20'0 0.0
2017-Sep-16 23:00N 37°49' W 122°20'0 0.0
2017-Sep-16 22:31N 37°49' W 122°20'0 0.0
2017-Sep-16 22:01N 37°49' W 122°20'0 0.0
2017-Sep-16 21:31N 37°49' W 122°20'0 0.0
2017-Sep-16 21:01N 37°49' W 122°20'0 0.0
2017-Sep-16 20:31N 37°49' W 122°20'0 0.0
2017-Sep-16 20:01N 37°49' W 122°20'0 0.0
2017-Sep-16 19:30N 37°49' W 122°20'0 0.0
2017-Sep-16 19:01N 37°49' W 122°20'0 0.0
2017-Sep-16 18:30N 37°49' W 122°20'0 0.0
2017-Sep-16 18:00N 37°49' W 122°20'0 0.0
2017-Sep-16 17:31N 37°49' W 122°20'0 0.0
2017-Sep-16 17:01N 37°49' W 122°20'0 0.0
2017-Sep-16 16:31N 37°49' W 122°20'0 0.0
2017-Sep-16 16:01N 37°49' W 122°20'0 0.0
2017-Sep-16 15:31N 37°49' W 122°20'0 0.0
2017-Sep-16 15:01N 37°49' W 122°20'0 0.0
2017-Sep-16 14:30N 37°49' W 122°20'0 0.0
2017-Sep-16 14:00N 37°49' W 122°20'0 0.0
2017-Sep-16 13:31N 37°49' W 122°20'0 0.8
2017-Sep-16 13:01N 37°49' W 122°20'0 1.0
2017-Sep-16 12:31N 37°49' W 122°20'5 9.7
2017-Sep-16 12:01N 37°49' W 122°27'714.5
2017-Sep-16 11:30N 37°47' W 122°35'510.5
2017-Sep-16 11:00N 37°44' W 122°41'4 8.3
2017-Sep-16 10:30N 37°40' W 122°40'4 8.7
2017-Sep-16 10:01N 37°36' W 122°39'4 8.4
2017-Sep-16 09:30N 37°31' W 122°39'5 9.7
2017-Sep-16 09:00N 37°27' W 122°39'5 9.7
2017-Sep-16 08:30N 37°22' W 122°39'5 9.7
2017-Sep-16 08:00N 37°17' W 122°39'5 9.7
2017-Sep-16 07:30N 37°12' W 122°39'510.5
2017-Sep-16 07:00N 37°07' W 122°39'612.6
2017-Sep-16 06:30N 37°01' W 122°37'713.2
2017-Sep-16 06:00N 36°55' W 122°34'713.9
2017-Sep-16 05:30N 36°48' W 122°31'713.9
2017-Sep-16 05:00N 36°42' W 122°28'713.8
2017-Sep-16 04:29N 36°35' W 122°24'713.8
2017-Sep-16 03:57N 36°28' W 122°21'1713.8
2017-Sep-16 02:43N 36°12' W 122°14'4313.9
2017-Sep-15 23:36N 35°33' W 121°50'114.2
2017-Sep-15 23:30N 35°32' W 121°49'714.3
2017-Sep-15 23:00N 35°26' W 121°45'714.4
2017-Sep-15 22:31N 35°19' W 121°41'713.9
2017-Sep-15 22:00N 35°13' W 121°37'713.9
2017-Sep-15 21:30N 35°07' W 121°33'714.1
2017-Sep-15 21:00N 35°01' W 121°29'714.3
2017-Sep-15 20:30N 34°54' W 121°25'714.4
2017-Sep-15 20:00N 34°48' W 121°21'714.1
2017-Sep-15 19:31N 34°42' W 121°17'713.6
2017-Sep-15 19:00N 34°36' W 121°13'713.4
2017-Sep-15 18:30N 34°30' W 121°09'612.5
2017-Sep-15 18:01N 34°28' W 121°02'612.6
2017-Sep-15 17:31N 34°27' W 120°54'510.4
2017-Sep-15 17:00N 34°25' W 120°48'5 9.4
2017-Sep-15 16:31N 34°24' W 120°43'5 9.5
2017-Sep-15 16:01N 34°23' W 120°37'5 9.5
2017-Sep-15 15:30N 34°21' W 120°31'5 9.6
2017-Sep-15 15:00N 34°20' W 120°26'5 9.6
2017-Sep-15 14:30N 34°19' W 120°20'5 9.5
2017-Sep-15 14:00N 34°18' W 120°15'5 9.6
2017-Sep-15 13:30N 34°16' W 120°09'5 9.6
2017-Sep-15 13:00N 34°15' W 120°04'5 9.5
2017-Sep-15 12:26N 34°14' W 119°57'4 9.5
2017-Sep-15 11:58N 34°13' W 119°52'5 9.7
2017-Sep-15 11:30N 34°12' W 119°47'5 9.5
2017-Sep-15 10:59N 34°10' W 119°41'5 9.7
2017-Sep-15 10:30N 34°09' W 119°36'5 9.5
2017-Sep-15 10:00N 34°08' W 119°30'5 9.6
2017-Sep-15 09:28N 34°06' W 119°24'5 9.4
2017-Sep-15 08:59N 34°05' W 119°19'5 9.7
2017-Sep-15 08:31N 34°04' W 119°14'5 9.9
2017-Sep-15 08:01N 34°01' W 119°08'5 9.8
2017-Sep-15 07:30N 33°59' W 119°03'5 9.6
2017-Sep-15 07:00N 33°56' W 118°58'5 9.6
2017-Sep-15 06:31N 33°54' W 118°53'5 9.4
2017-Sep-15 06:01N 33°52' W 118°48'5 9.7
2017-Sep-15 05:30N 33°49' W 118°43'5 9.6
2017-Sep-15 05:00N 33°47' W 118°38'5 9.4
2017-Sep-15 04:30N 33°44' W 118°33'5 9.4
2017-Sep-15 04:00N 33°42' W 118°28'5 9.4
2017-Sep-15 03:31N 33°40' W 118°24'5 8.8
2017-Sep-15 02:59N 33°38' W 118°18'4 8.1
2017-Sep-15 02:30N 33°41' W 118°15'3 6.0
2017-Sep-15 02:00N 33°44' W 118°17'1 1.8
2017-Sep-15 01:30N 33°45' W 118°16'0 0.0
2017-Sep-15 00:57N 33°45' W 118°16'0 0.0
2017-Sep-15 00:27N 33°45' W 118°16'0 0.0
2017-Sep-14 23:57N 33°45' W 118°16'0 0.0
2017-Sep-14 23:30N 33°45' W 118°16'0 0.0
2017-Sep-14 22:51N 33°45' W 118°16'0 0.0
2017-Sep-14 22:27N 33°45' W 118°16'0 0.0
2017-Sep-14 22:00N 33°45' W 118°16'0 0.0
2017-Sep-14 21:30N 33°45' W 118°16'0 0.0
2017-Sep-14 21:00N 33°45' W 118°16'0 0.0
2017-Sep-14 20:27N 33°45' W 118°16'0 0.0
2017-Sep-14 20:00N 33°45' W 118°16'0 0.0
2017-Sep-14 19:30N 33°45' W 118°16'0 0.0
2017-Sep-14 19:00N 33°45' W 118°16'0 0.0
2017-Sep-14 18:30N 33°45' W 118°16'0 0.0
2017-Sep-14 18:00N 33°45' W 118°16'0 0.0
2017-Sep-14 17:24N 33°45' W 118°16'0 0.0
2017-Sep-14 16:48N 33°45' W 118°16'0 0.0
2017-Sep-14 16:27N 33°45' W 118°16'0 0.0
2017-Sep-14 15:54N 33°45' W 118°16'0 0.0
2017-Sep-14 15:30N 33°45' W 118°16'0 0.0
2017-Sep-14 14:54N 33°45' W 118°16'0 0.0
2017-Sep-14 14:24N 33°45' W 118°16'0 0.0
2017-Sep-14 13:51N 33°45' W 118°16'0 0.0
2017-Sep-14 13:24N 33°45' W 118°16'0 0.0
2017-Sep-14 12:24N 33°45' W 118°16'0 0.0
2017-Sep-14 08:45N 33°45' W 118°16'0 0.0
2017-Sep-14 08:30N 33°45' W 118°16'0 0.0
2017-Sep-14 07:06N 33°45' W 118°16'0 0.0
2017-Sep-14 06:54N 33°45' W 118°16'0 0.0
2017-Sep-14 06:00N 33°45' W 118°16'0 0.0
2017-Sep-14 05:27N 33°45' W 118°16'0 0.0
2017-Sep-14 04:57N 33°45' W 118°16'0 0.0
2017-Sep-14 04:24N 33°45' W 118°16'0 0.0
2017-Sep-14 03:48N 33°45' W 118°16'0 0.0
2017-Sep-14 03:24N 33°45' W 118°16'0 0.0
2017-Sep-14 02:57N 33°45' W 118°16'0 0.0
2017-Sep-14 02:30N 33°45' W 118°16'0 0.0
2017-Sep-14 02:00N 33°45' W 118°16'0 0.0
2017-Sep-14 01:30N 33°45' W 118°16'0 0.0
2017-Sep-14 01:00N 33°45' W 118°16'0 0.0
2017-Sep-14 00:27N 33°45' W 118°16'0 0.0
2017-Sep-13 23:57N 33°45' W 118°16'0 0.0
2017-Sep-13 23:30N 33°45' W 118°16'0 0.0
2017-Sep-13 23:00N 33°45' W 118°16'0 0.0
2017-Sep-13 22:30N 33°45' W 118°16'0 0.0
2017-Sep-13 22:00N 33°45' W 118°16'0 0.0
2017-Sep-13 21:30N 33°45' W 118°16'0 0.0
2017-Sep-13 21:00N 33°45' W 118°16'0 0.0
2017-Sep-13 20:30N 33°45' W 118°16'0 0.0
2017-Sep-13 20:00N 33°45' W 118°16'0 0.0
2017-Sep-13 19:30N 33°45' W 118°16'0 0.0
2017-Sep-13 18:54N 33°45' W 118°16'0 0.0
2017-Sep-13 18:30N 33°45' W 118°16'0 0.0
2017-Sep-13 18:00N 33°45' W 118°16'0 0.0
2017-Sep-13 17:30N 33°45' W 118°16'0 0.0
2017-Sep-13 17:00N 33°45' W 118°16'0 0.0
2017-Sep-13 16:30N 33°45' W 118°16'0 0.0
2017-Sep-13 15:57N 33°45' W 118°16'0 0.0
2017-Sep-13 15:30N 33°45' W 118°16'0 0.0
2017-Sep-13 15:00N 33°45' W 118°16'0 0.0
2017-Sep-13 14:30N 33°45' W 118°16'0 0.0
2017-Sep-13 14:00N 33°45' W 118°16'0 0.0
2017-Sep-13 13:30N 33°45' W 118°16'0 0.0
2017-Sep-13 13:00N 33°45' W 118°16'0 0.0
2017-Sep-13 12:27N 33°45' W 118°16'0 0.0
2017-Sep-13 12:00N 33°45' W 118°16'0 0.0
2017-Sep-13 11:30N 33°45' W 118°16'0 0.0
2017-Sep-13 11:00N 33°45' W 118°16'0 0.0
2017-Sep-13 10:30N 33°45' W 118°16'0 0.0
2017-Sep-13 10:00N 33°45' W 118°16'0 0.0
2017-Sep-13 09:30N 33°45' W 118°16'0 0.0
2017-Sep-13 09:00N 33°45' W 118°16'0 0.0
2017-Sep-13 08:30N 33°45' W 118°16'0 0.0
2017-Sep-13 08:00N 33°45' W 118°16'0 0.0
2017-Sep-13 07:30N 33°45' W 118°16'0 0.0
2017-Sep-13 07:00N 33°45' W 118°16'0 0.0
2017-Sep-13 06:30N 33°45' W 118°16'0 0.0
2017-Sep-13 06:00N 33°45' W 118°16'0 0.0
2017-Sep-13 05:30N 33°45' W 118°16'0 0.0
2017-Sep-13 05:00N 33°45' W 118°16'0 0.0
2017-Sep-13 04:30N 33°45' W 118°16'0 0.0
2017-Sep-13 04:00N 33°45' W 118°16'0 0.0
2017-Sep-13 03:30N 33°45' W 118°16'0 0.0
2017-Sep-13 03:00N 33°45' W 118°16'0 0.0
2017-Sep-13 02:30N 33°45' W 118°16'0 0.0
2017-Sep-13 02:00N 33°45' W 118°16'0 0.0
2017-Sep-13 01:30N 33°45' W 118°16'0 0.0
2017-Sep-13 01:00N 33°45' W 118°16'0 0.0
2017-Sep-13 00:30N 33°45' W 118°16'0 0.0
2017-Sep-13 00:00N 33°45' W 118°16'0 0.0
2017-Sep-12 23:30N 33°45' W 118°16'0 0.0
2017-Sep-12 23:00N 33°45' W 118°16'0 0.0
2017-Sep-12 22:30N 33°45' W 118°16'0 0.0
2017-Sep-12 22:00N 33°45' W 118°16'0 0.0
2017-Sep-12 21:30N 33°45' W 118°16'0 0.0
2017-Sep-12 21:00N 33°45' W 118°16'0 0.0
2017-Sep-12 20:30N 33°45' W 118°16'0 0.0
2017-Sep-12 20:00N 33°45' W 118°16'0 0.0
2017-Sep-12 19:30N 33°45' W 118°16'0 0.0
2017-Sep-12 19:00N 33°45' W 118°16'0 0.0
2017-Sep-12 18:30N 33°45' W 118°16'0 0.0
2017-Sep-12 18:00N 33°45' W 118°16'0 0.0
2017-Sep-12 17:30N 33°45' W 118°16'0 0.0
2017-Sep-12 17:00N 33°45' W 118°16'0 0.0
2017-Sep-12 16:30N 33°45' W 118°16'0 0.0
2017-Sep-12 16:00N 33°45' W 118°16'0 0.0
2017-Sep-12 15:30N 33°45' W 118°16'0 0.0
2017-Sep-12 15:00N 33°45' W 118°16'0 0.0
2017-Sep-12 14:31N 33°45' W 118°16'0 0.0
2017-Sep-12 14:00N 33°45' W 118°16'0 0.1
2017-Sep-12 13:30N 33°45' W 118°16'0 0.9
2017-Sep-12 13:00N 33°44' W 118°17'1 1.9
2017-Sep-12 12:30N 33°44' W 118°16'1 1.1
2017-Sep-12 12:00N 33°43' W 118°16'3 6.8
2017-Sep-12 11:30N 33°40' W 118°13'4 7.5
2017-Sep-12 11:00N 33°37' W 118°15'4 7.5
2017-Sep-12 10:30N 33°36' W 118°19'5 9.4
2017-Sep-12 10:00N 33°36' W 118°25'5 9.7
2017-Sep-12 09:30N 33°37' W 118°31'5 9.9
2017-Sep-12 09:00N 33°37' W 118°37'5 9.8
2017-Sep-12 08:30N 33°37' W 118°43'5 9.8
2017-Sep-12 08:00N 33°38' W 118°48'5 9.8
2017-Sep-12 07:30N 33°38' W 118°54'5 9.6
2017-Sep-12 07:00N 33°38' W 119°00'5 9.1
2017-Sep-12 06:30N 33°38' W 119°06'2 4.0
2017-Sep-12 06:00N 33°38' W 119°08'510.6
2017-Sep-12 05:29N 33°39' W 119°15'917.2
2017-Sep-12 04:59N 33°39' W 119°25'817.2
2017-Sep-12 04:30N 33°39' W 119°35'917.5
2017-Sep-12 04:00N 33°38' W 119°45'917.4
2017-Sep-12 03:30N 33°38' W 119°56'917.4
2017-Sep-12 03:01N 33°38' W 120°06'917.3
2017-Sep-12 02:31N 33°38' W 120°17'917.2
2017-Sep-12 02:00N 33°38' W 120°27'917.3
2017-Sep-12 01:30N 33°38' W 120°37'917.2
2017-Sep-12 01:00N 33°38' W 120°48'917.7
2017-Sep-12 00:30N 33°38' W 120°59'917.3
2017-Sep-11 23:59N 33°38' W 121°09'817.1
2017-Sep-11 23:30N 33°38' W 121°19'816.9
2017-Sep-11 23:00N 33°38' W 121°29'917.0
2017-Sep-11 22:29N 33°38' W 121°40'817.0
2017-Sep-11 21:59N 33°38' W 121°50'817.3
2017-Sep-11 21:30N 33°38' W 122°00'917.2
2017-Sep-11 21:00N 33°38' W 122°10'917.4
2017-Sep-11 20:30N 33°38' W 122°21'917.6
2017-Sep-11 19:58N 33°38' W 122°32'19613.6
2017-Sep-11 05:31N 34°20' W 126°23'020.7
2017-Sep-11 05:30N 34°20' W 126°24'1120.7
2017-Sep-11 04:59N 34°24' W 126°36'1120.6
2017-Sep-11 04:26N 34°28' W 126°48'1020.5
2017-Sep-11 03:57N 34°32' W 126°60'920.7
2017-Sep-11 03:31N 34°35' W 127°10'1320.8
2017-Sep-11 02:53N 34°40' W 127°24'820.6
2017-Sep-11 02:30N 34°43' W 127°33'1320.7
2017-Sep-11 01:52N 34°48' W 127°48'721.0
2017-Sep-11 01:30N 34°51' W 127°57'1021.0
2017-Sep-11 01:01N 34°55' W 128°08'  

Dump ship's entire track history